Des Allemands, Louisiana
Current Conditions -  °F | °C
As of 1:53 AM on Tuesday 27 Jan 2015 (Local Time) from KMSY Reporting Station
Clear Clear  
Wind Chill: 45°   Ceiling: Unl
Heat Index: 49°   Visibility: 10mi
Dew Point: 39°   Wind: 8mph
Humidity: 69%   Direction: 240°WSW
Pressure: 30.1"   Gusts: NA
Location:  29.82°N, 90.48°W
Report Text: KMSY 270753Z 24007KT 10SM CLR 09/04 A3010 RMK AO2 SLP194 T00940039
Loading
Personal Weather Stations






























Interactive Weather Map New forecast layout! Learn more

10-Day Weather Forecast

Advertisements
Track Severe Weather on mobile